• Join FlightAware (Why Join?)
  • Login
  • US Flag 
12:31AM EST


 

Airport Tracker/Info


-or-


 

Live Flight TrackerFlight Track Log ✈ ASQ5290 ✈ 06-May-2012 ✈ KABY - KATL

Flight Track Log - Related Links

Times and Time Zones

All times are in EDT time to prevent confusion due to time zone crossing. See the ASQ5290 flight status page for this flight to view local times or setup timezone preferences in your user account.

Time Position Orientation Groundspeed Altitude Reporting Facility
EDT Latitude Longitude Course Direction KTS MPH feet Rate Location/Type
06:05AM 31.8651 -84.4212 144° Southeast  Level FlightAware Approximate
06:07AM 31.5878 -84.1828 312° West 297 342 2,400  Level Jacksonville Center
06:09AM 31.6836 -84.3097 330° Northwest 232 267 7,000 2,460 Climbing Atlanta Center
06:10AM 31.7525 -84.3564 330° Northwest 266 306 9,600 1,980 Climbing Atlanta Center
06:11AM 31.8275 -84.4081 332° Northwest 297 342 11,000 1,500 Climbing Atlanta Center
06:12AM 31.9150 -84.4622 328° Northwest 328 377 12,600 1,620 Climbing Atlanta Center
06:13AM 32.0003 -84.5239 332° Northwest 349 402 14,300 1,620 Climbing Atlanta Center
06:14AM 32.0897 -84.5806 334° Northwest 354 407 15,900 1,680 Climbing Atlanta Center
06:15AM 32.1814 -84.6328 331° Northwest 359 413 17,700 1,560 Climbing Atlanta Center
06:16AM 32.2708 -84.6922 330° Northwest 364 419 19,100 1,140 Climbing Atlanta Center
06:17AM 32.3667 -84.7569 330° Northwest 378 435 20,000 420 Climbing Atlanta Center
06:18AM 32.4664 -84.8242 332° Northwest 392 451 20,000  Level Atlanta Center
06:19AM 32.5703 -84.8892 337° Northwest 414 476 20,000  Level Atlanta Center
06:20AM 32.6847 -84.9469 352° North 421 484 20,000  Level Atlanta Center
06:21AM 32.8056 -84.9681 353° North 434 499 20,000 -960 Level Atlanta Center
06:22AM 32.9244 -84.9867 North 428 493 18,100 -1,800 Descending Atlanta Center
06:23AM 33.0267 -84.9778 17° North 423 487 16,400 -1,740 Descending Atlanta Center
06:24AM 33.1356 -84.9369 18° North 408 470 14,700 -1,500 Descending Atlanta Center
06:25AM 33.2381 -84.8981 30° Northeast 384 442 13,400 -1,200 Descending Atlanta Center
06:26AM 33.3347 -84.8319 49° Northeast 384 442 12,400 -720 Descending Atlanta Center
06:27AM 33.4061 -84.7331 48° Northeast 384 442 12,000 -240 Descending Atlanta Center
06:28AM 33.4756 -84.6414 48° Northeast 378 435 12,000 -180 Level Atlanta Center
06:29AM 33.5300 -84.5697 79° East 326 375 11,700 -720 Descending Atlanta Center
06:30AM 33.5431 -84.4875 87° East 256 295 10,600 -1,440 Descending Atlanta Center
06:32AM 33.5500 -84.3333 90° East 240 276 7,700 -1,260 Descending Atlanta TRACON
06:33AM 33.5500 -84.2500 90° East 210 242 7,000 -960 Descending Atlanta TRACON
06:34AM 33.5500 -84.1667 23° Northeast 202 232 5,600 -1,200 Descending Atlanta TRACON
06:35AM 33.5833 -84.1500 301° West 192 221 4,700 -900 Descending Atlanta TRACON
06:36AM 33.6000 -84.1833 292° West 180 207 4,000 -420 Descending Atlanta TRACON
06:36AM 33.6167 -84.2333 287° West 175 201 4,000 -600 Level Atlanta TRACON
06:38AM 33.6333 -84.3000 270° West 185 213 2,900 -900 Descending Atlanta TRACON
06:40AM 33.6333 -84.4000 141° Southeast 147 169 1,300 -840 Descending Atlanta TRACON
06:47AM 33.6171 -84.3841 141° Southeast  Level FlightAware Approximate